Aérodrome :
LOGIN :

S'inscrire | Disclaimer

   EN    FR    IT 

 










Légende :    VFR   VFR Marginal   IFR   IFR Intensif   IFR Très Intensif
Visi : 
Plafond : 
>= 8 km
>= 3000ft
5 à 8 km
1000 à 3000 ft
1500m à 5 km
500 à 1000 ft
800 à 1500m
200 à 500 ft
< 800m
< 200 ft
Symboles :   Orages  Brouillard  Fortes neiges  Fortes précipitations  Vent > 20 kt
SIGMETs :   Divers  Orages  Givrage  Turbulence  Onde Orograph.  Cendres Volcan.







- Altitude de l'aérodrome : 184 ft
- Code IATA : BRU


EBBR - Bruxelles

DERNIER METAR :
  • 252350Z 24002KT CAVOK 17/14 Q1019 NOSIG

METARs EXPIRÉS :
  • 252320Z 00000KT CAVOK 17/14 Q1019 NOSIG
  • 252250Z 22003KT CAVOK 19/14 Q1019 NOSIG
  • 252220Z 19002KT CAVOK 19/14 Q1019 NOSIG
  • 252150Z 00000KT CAVOK 21/13 Q1019 NOSIG
  • 252120Z VRB01KT CAVOK 20/14 Q1019 NOSIG

TAF TAF EBBR
Valide du 26 à 00h jusqu'au 27 à 06h UTC


252313Z 2600/2706 VRB02KT CAVOK
Pas de NOTAMs connus pour ce terrain.



MET'MAP, la Météo Aéronautique d'un coup d'oeil ! - Copyright ORBIFLY Décembre 2007 - Disclaimer

ORBIFLY MET'MAP TEAM :

Programmation & Développement : Alexandra Zaïnal
Conception & Développement : Baudouin d'Aumeries
Co-Programmation & Développement : Marc-Olivier Méhu
Soutien technique & logistique : Manuel Goepfert

Contact : metmap@orbifly.com




SOURCES & CREDITS :

   NOAA